Flight Track Log - Related Links

Times and Time Zones

All times are in EDT time to prevent confusion due to time zone crossing. See the AAL1326 flight status page for this flight to view local times or setup timezone preferences in your user account.

Time Position Orientation Groundspeed Altitude Reporting Facility
EDT Latitude Longitude Course Direction KTS MPH feet Rate Location/Type
Sun 06:53:03 PM 41.9800 -87.8800 90° East 149 171 1,600  Level FlightAware ADS-B
Sun 06:53:18 PM 41.9720 -87.8700 137° Southeast 171 197 2,000 1,350 Climbing FlightAware ADS-B
Sun 06:53:43 PM 41.9550 -87.8500 139° Southeast 217 250 2,500 1,745 Climbing FlightAware ADS-B
Sun 06:54:13 PM 41.9280 -87.8270 148° Southeast 251 289 3,600 2,667 Climbing FlightAware ADS-B
Sun 06:54:28 PM 41.9100 -87.8210 166° South 260 299 4,500 3,150 Climbing FlightAware ADS-B
Sun 06:54:53 PM 41.8800 -87.8100 165° South 274 315 5,700 3,273 Climbing FlightAware ADS-B
Sun 06:55:23 PM 41.8410 -87.8050 175° South 278 320 7,500 3,273 Climbing FlightAware ADS-B
Sun 06:55:48 PM 41.8100 -87.8050 180° South 289 333 8,700 3,429 Climbing FlightAware ADS-B
Sun 06:56:33 PM 41.7480 -87.7930 172° South 297 342 11,500 3,529 Climbing FlightAware ADS-B
Sun 06:57:13 PM 41.6920 -87.7810 171° South 308 354 13,700 3,000 Climbing FlightAware ADS-B
Sun 06:57:43 PM 41.6480 -87.7720 171° South 313 360 15,000 1,040 Climbing FlightAware ADS-B
Sun 06:58:28 PM 41.5840 -87.7590 171° South 308 354 15,000 71 Level FlightAware ADS-B
Sun 06:59:08 PM 41.5300 -87.7480 171° South 308 354 15,100 600 Climbing FlightAware ADS-B
Sun 06:59:48 PM 41.4680 -87.7350 171° South 367 422 15,800 2,118 Climbing FlightAware ADS-B
Sun 07:00:33 PM 41.3880 -87.7250 175° South 379 436 18,100 2,894 Climbing FlightAware ADS-B
Sun 07:01:13 PM 41.3160 -87.7260 181° South 395 455 19,900 2,824 Climbing FlightAware ADS-B
Sun 07:01:58 PM 41.2350 -87.7260 180° South 397 457 22,100 2,612 Climbing FlightAware ADS-B
Sun 07:02:38 PM 41.1580 -87.7210 177° South 417 480 23,600 2,175 Climbing FlightAware ADS-B
Sun 07:03:18 PM 41.0800 -87.7100 174° South 430 495 25,000 1,765 Climbing FlightAware ADS-B
Sun 07:04:03 PM 40.9920 -87.6980 174° South 438 504 26,100 1,906 Climbing FlightAware ADS-B
Sun 07:04:43 PM 40.9110 -87.6720 166° South 451 519 27,700 2,250 Climbing FlightAware ADS-B
Sun 07:05:23 PM 40.8330 -87.6340 160° South 454 522 29,100 2,329 Climbing FlightAware ADS-B
Sun 07:06:08 PM 40.7440 -87.5920 160° South 445 512 31,000 2,259 Climbing FlightAware ADS-B
Sun 07:06:48 PM 40.6650 -87.5540 160° South 445 512 32,300 1,500 Climbing FlightAware ADS-B
Sun 07:07:28 PM 40.5940 -87.5190 159° South 454 522 33,000 1,129 Climbing FlightAware ADS-B
Sun 07:08:13 PM 40.5040 -87.4760 160° South 465 535 33,900 1,200 Climbing FlightAware ADS-B
Sun 07:08:53 PM 40.4200 -87.4360 160° South 471 542 34,700 1,412 Climbing FlightAware ADS-B
Sun 07:09:38 PM 40.3230 -87.3910 161° South 471 542 35,900 1,553 Climbing FlightAware ADS-B
Sun 07:10:18 PM 40.2450 -87.3530 160° South 467 537 36,900 1,482 Climbing FlightAware ADS-B
Sun 07:11:03 PM 40.1570 -87.3120 160° South 464 534 38,000 1,482 Climbing FlightAware ADS-B
Sun 07:11:43 PM 40.0730 -87.2730 160° South 456 525 39,000 750 Climbing FlightAware ADS-B
Sun 07:12:23 PM 39.9970 -87.2370 160° South 456 525 39,000  Level FlightAware ADS-B
Sun 07:13:08 PM 39.9020 -87.1930 160° South 455 524 39,000  Level FlightAware ADS-B
Sun 07:13:48 PM 39.8230 -87.1560 160° South 454 522 39,000  Level FlightAware ADS-B
Sun 07:14:23 PM 39.7570 -87.1250 160° South 453 521 39,000  Level FlightAware ADS-B
Sun 07:15:13 PM 39.6610 -87.0810 161° South 452 520 39,000  Level FlightAware ADS-B
Sun 07:15:48 PM 39.5890 -87.0480 161° South 451 519 39,000  Level FlightAware ADS-B
Sun 07:16:38 PM 39.4900 -87.0020 160° South 453 521 39,000  Level FlightAware ADS-B
Sun 07:17:23 PM 39.4010 -86.9610 160° South 453 521 39,000  Level FlightAware ADS-B
Sun 07:18:03 PM 39.3210 -86.9240 160° South 454 522 39,000  Level FlightAware ADS-B
Sun 07:18:43 PM 39.2410 -86.8880 161° South 455 524 39,000  Level FlightAware ADS-B
Sun 07:19:28 PM 39.1520 -86.8430 159° South 462 532 39,000  Level FlightAware ADS-B
Sun 07:20:08 PM 39.0760 -86.7910 152° Southeast 464 534 39,000  Level FlightAware ADS-B
Sun 07:20:53 PM 38.9920 -86.7340 152° Southeast 464 534 39,000  Level FlightAware ADS-B
Sun 07:21:33 PM 38.9150 -86.6820 152° Southeast 465 535 39,000  Level FlightAware ADS-B
Sun 07:22:13 PM 38.8430 -86.6340 153° Southeast 465 535 39,000  Level FlightAware ADS-B
Sun 07:22:58 PM 38.7600 -86.5770 152° Southeast 467 537 39,000  Level FlightAware ADS-B
Sun 07:23:38 PM 38.6780 -86.5230 153° Southeast 467 537 39,000  Level FlightAware ADS-B
Sun 07:24:23 PM 38.5900 -86.4640 152° Southeast 469 540 39,000  Level FlightAware ADS-B
Sun 07:25:03 PM 38.5130 -86.4130 153° Southeast 469 540 39,000  Level FlightAware ADS-B
Sun 07:25:43 PM 38.4370 -86.3620 152° Southeast 469 540 39,000  Level FlightAware ADS-B
Sun 07:26:28 PM 38.3530 -86.3060 152° Southeast 469 540 39,000  Level FlightAware ADS-B
Sun 07:27:08 PM 38.2750 -86.2540 152° Southeast 469 540 39,000  Level FlightAware ADS-B
Sun 07:27:48 PM 38.1960 -86.2020 153° Southeast 468 539 39,000  Level FlightAware ADS-B
Sun 07:28:33 PM 38.1090 -86.1450 153° Southeast 467 537 39,000  Level FlightAware ADS-B
Sun 07:29:13 PM 38.0320 -86.0940 152° Southeast 467 537 39,000  Level FlightAware ADS-B
Sun 07:29:58 PM 37.9480 -86.0390 153° Southeast 466 536 39,000  Level FlightAware ADS-B
Sun 07:30:38 PM 37.8720 -85.9890 153° Southeast 466 536 39,000  Level FlightAware ADS-B
Sun 07:31:18 PM 37.7960 -85.9400 153° Southeast 466 536 39,000  Level FlightAware ADS-B
Sun 07:31:58 PM 37.7200 -85.8900 153° Southeast 467 537 39,000  Level FlightAware ADS-B
Sun 07:32:43 PM 37.6330 -85.8330 153° Southeast 468 539 39,000  Level FlightAware ADS-B
Sun 07:33:21 PM 37.5535 -85.7822 153° Southeast 469 540 39,000  Level FlightAware ADS-B
Sun 07:33:51 PM 37.4946 -85.7441 153° Southeast 469 540 39,000  Level FlightAware ADS-B
Sun 07:34:25 PM 37.4298 -85.7023 153° Southeast 470 541 39,000  Level FlightAware ADS-B
Sun 07:34:56 PM 37.3703 -85.6637 153° Southeast 472 543 39,000  Level FlightAware ADS-B
Sun 07:35:27 PM 37.3098 -85.6248 153° Southeast 473 544 39,000  Level FlightAware ADS-B
Sun 07:35:58 PM 37.2498 -85.5863 153° Southeast 475 547 39,000  Level FlightAware ADS-B
Sun 07:36:28 PM 37.1893 -85.5478 153° Southeast 476 548 39,000  Level FlightAware ADS-B
Sun 07:36:59 PM 37.1284 -85.5092 153° Southeast 476 548 39,000  Level FlightAware ADS-B
Sun 07:37:30 PM 37.0666 -85.4809 160° South 464 534 39,000  Level FlightAware ADS-B
Sun 07:38:00 PM 37.0039 -85.4611 166° South 463 533 39,000  Level FlightAware ADS-B
Sun 07:38:32 PM 36.9376 -85.4403 166° South 463 533 39,000  Level FlightAware ADS-B
Sun 07:39:28 PM 36.8216 -85.4037 166° South 461 531 39,000  Level FlightAware ADS-B
Sun 07:40:07 PM 36.7415 -85.3785 166° South 460 529 39,000  Level FlightAware ADS-B
Sun 07:40:39 PM 36.6754 -85.3576 166° South 460 529 39,000  Level FlightAware ADS-B
Sun 07:41:19 PM 36.5926 -85.3316 166° South 460 529 39,000  Level FlightAware ADS-B
Sun 07:41:51 PM 36.5256 -85.3106 166° South 459 528 39,000  Level FlightAware ADS-B
Sun 07:42:24 PM 36.4587 -85.2895 166° South 459 528 39,000  Level FlightAware ADS-B
Sun 07:43:07 PM 36.3695 -85.2617 166° South 458 527 39,000  Level FlightAware ADS-B
Sun 07:43:37 PM 36.3075 -85.2425 166° South 457 526 39,000  Level FlightAware ADS-B
Sun 07:44:11 PM 36.2394 -85.2212 166° South 457 526 39,000  Level FlightAware ADS-B
Sun 07:44:42 PM 36.1757 -85.2015 166° South 458 527 39,000  Level FlightAware ADS-B
Sun 07:45:13 PM 36.1120 -85.1817 166° South 459 528 39,000  Level FlightAware ADS-B
Sun 07:45:49 PM 36.0370 -85.1585 166° South 458 527 39,000  Level FlightAware ADS-B
Sun 07:46:20 PM 35.9734 -85.1389 166° South 458 527 39,000  Level FlightAware ADS-B
Sun 07:46:51 PM 35.9090 -85.1188 166° South 459 528 39,000  Level FlightAware ADS-B
Sun 07:47:22 PM 35.8453 -85.0992 166° South 460 529 39,000  Level FlightAware ADS-B
Sun 07:47:54 PM 35.7804 -85.0793 166° South 461 531 39,000  Level FlightAware ADS-B
Sun 07:48:25 PM 35.7160 -85.0596 166° South 462 532 39,000  Level FlightAware ADS-B
Sun 07:48:55 PM 35.6530 -85.0402 166° South 463 533 39,000  Level FlightAware ADS-B
Sun 07:49:26 PM 35.5890 -85.0206 166° South 463 533 39,000  Level FlightAware ADS-B
Sun 07:50:05 PM 35.5084 -84.9958 166° South 464 534 39,000  Level FlightAware ADS-B
Sun 07:50:35 PM 35.4454 -84.9766 166° South 465 535 39,000  Level FlightAware ADS-B
Sun 07:51:05 PM 35.3816 -84.9572 166° South 466 536 39,000  Level FlightAware ADS-B
Sun 07:51:35 PM 35.3185 -84.9380 166° South 467 537 39,000  Level FlightAware ADS-B
Sun 07:52:06 PM 35.2547 -84.9186 166° South 468 539 39,000  Level FlightAware ADS-B
Sun 07:52:36 PM 35.1907 -84.8993 166° South 469 540 39,000  Level FlightAware ADS-B
Sun 07:53:07 PM 35.1262 -84.8797 166° South 469 540 39,000  Level FlightAware ADS-B
Sun 07:53:37 PM 35.0624 -84.8605 166° South 469 540 39,000  Level FlightAware ADS-B
Sun 07:54:08 PM 34.9984 -84.8412 166° South 469 540 39,000  Level FlightAware ADS-B
Sun 07:54:38 PM 34.9440 -84.8250 166° South 467 537 39,000  Level FlightAware ADS-B
Sun 07:54:47 PM 34.9160 -84.8164 166° South 468 539 39,000  Level FlightAware ADS-B
Sun 07:55:18 PM 34.8630 -84.8010 167° South 467 537 39,000  Level FlightAware ADS-B
Sun 07:56:03 PM 34.7630 -84.7710 166° South 460 529 39,000  Level FlightAware ADS-B
Sun 07:56:43 PM 34.6760 -84.7450 166° South 467 537 39,000  Level FlightAware ADS-B
Sun 07:57:28 PM 34.5810 -84.7160 166° South 466 536 39,000  Level FlightAware ADS-B
Sun 07:58:05 PM 34.4988 -84.6914 166° South 468 539 39,000  Level FlightAware ADS-B
Sun 07:58:42 PM 34.4211 -84.6684 166° South 468 539 39,000  Level FlightAware ADS-B
Sun 07:59:12 PM 34.3580 -84.6496 166° South 467 537 39,000  Level FlightAware ADS-B
Sun 08:00:13 PM 34.2500 -84.6170 166° South 465 535 39,000  Level FlightAware ADS-B
Sun 08:00:28 PM 34.2000 -84.6027 167° South 466 536 39,000  Level FlightAware ADS-B
Sun 08:00:58 PM 34.1500 -84.5880 166° South 464 534 39,000  Level FlightAware ADS-B
Sun 08:01:38 PM 34.0600 -84.5620 167° South 463 533 39,000  Level FlightAware ADS-B
Sun 08:02:18 PM 33.9790 -84.5380 166° South 463 533 39,000  Level FlightAware ADS-B
Sun 08:03:03 PM 33.8830 -84.5100 166° South 462 532 39,000  Level FlightAware ADS-B
Sun 08:03:43 PM 33.8070 -84.4870 166° South 462 532 39,000  Level FlightAware ADS-B
Sun 08:03:51 PM 33.7770 -84.4786 167° South 462 532 39,000  Level FlightAware ADS-B
Sun 08:04:25 PM 33.7079 -84.4548 164° South 468 539 39,000  Level FlightAware ADS-B
Sun 08:05:08 PM 33.6290 -84.4190 159° South 469 540 39,000  Level FlightAware ADS-B
Sun 08:05:42 PM 33.5515 -84.3826 159° South 471 542 39,000  Level FlightAware ADS-B
Sun 08:06:33 PM 33.4560 -84.3390 159° South 463 533 39,000  Level FlightAware ADS-B
Sun 08:06:44 PM 33.4245 -84.3244 159° South 471 542 39,000  Level FlightAware ADS-B
Sun 08:07:15 PM 33.3606 -84.2954 159° South 469 540 39,000  Level FlightAware ADS-B
Sun 08:07:50 PM 33.2917 -84.2642 159° South 464 534 39,000  Level FlightAware ADS-B
Sun 08:08:38 PM 33.2010 -84.2230 159° South 452 520 39,000  Level FlightAware ADS-B
Sun 08:09:18 PM 33.1220 -84.1870 159° South 452 520 39,000  Level FlightAware ADS-B
Sun 08:10:03 PM 33.0320 -84.1460 159° South 457 526 39,000  Level FlightAware ADS-B
Sun 08:10:43 PM 32.9550 -84.1110 159° South 457 526 39,000  Level FlightAware ADS-B
Sun 08:11:23 PM 32.8720 -84.0740 159° South 456 525 39,000  Level FlightAware ADS-B
Sun 08:12:08 PM 32.7820 -84.0340 160° South 456 525 39,000  Level FlightAware ADS-B
Sun 08:13:33 PM 32.6210 -83.9620 159° South 448 516 39,000  Level FlightAware ADS-B
Sun 08:14:13 PM 32.5430 -83.9270 159° South 449 517 39,000  Level FlightAware ADS-B
Sun 08:14:53 PM 32.4600 -83.8900 159° South 448 516 39,000  Level FlightAware ADS-B
Sun 08:15:43 PM 32.3640 -83.8470 159° South 448 516 39,000  Level FlightAware ADS-B
Sun 08:16:23 PM 32.2890 -83.8140 160° South 448 516 39,000  Level FlightAware ADS-B
Sun 08:17:03 PM 32.2190 -83.7810 158° South 450 518 39,000  Level FlightAware ADS-B
Sun 08:17:43 PM 32.1530 -83.7490 158° South 450 518 39,000  Level FlightAware ADS-B
Sun 08:18:23 PM 32.0870 -83.7180 158° South 450 518 39,000  Level FlightAware ADS-B
Sun 08:19:13 PM 32.0050 -83.6790 158° South 450 518 39,000  Level FlightAware ADS-B
Sun 08:19:53 PM 31.9400 -83.6480 158° South 450 518 39,000  Level FlightAware ADS-B
Sun 08:20:33 PM 31.8740 -83.6160 158° South 450 518 39,000  Level FlightAware ADS-B
Sun 08:21:13 PM 31.8080 -83.5850 158° South 450 518 39,000  Level FlightAware ADS-B
Sun 08:21:53 PM 31.7430 -83.5540 158° South 450 518 39,000  Level FlightAware ADS-B
Sun 08:22:43 PM 31.6610 -83.5150 158° South 450 518 39,000  Level FlightAware ADS-B
Sun 08:23:23 PM 31.5950 -83.4840 158° South 450 518 39,000  Level FlightAware ADS-B
Sun 08:24:03 PM 31.3500 -83.4010 164° South 471 542 39,000  Level FlightAware ADS-B
Sun 08:24:48 PM 31.2730 -83.3670 159° South 471 542 39,000  Level FlightAware ADS-B
Sun 08:25:18 PM 31.2010 -83.3370 160° South 471 542 39,000  Level FlightAware ADS-B
Sun 08:26:03 PM 31.1210 -83.3030 160° South 471 542 39,000  Level FlightAware ADS-B
Sun 08:26:53 PM 31.2010 -83.3370 340° North 471 542 39,000  Level FlightAware ADS-B
Sun 08:27:28 PM 31.1390 -83.3090 159° South 471 542 39,000  Level FlightAware ADS-B
Sun 08:28:13 PM 30.8420 -83.1820 160° South 473 544 39,000  Level FlightAware ADS-B
Sun 08:28:53 PM 30.7670 -83.1490 159° South 474 545 39,000  Level FlightAware ADS-B
Sun 08:29:38 PM 30.6610 -83.1050 160° South 475 547 39,000  Level FlightAware ADS-B
Sun 08:30:58 PM 30.5810 -83.0690 159° South 475 547 39,000  Level FlightAware ADS-B
Sun 08:31:48 PM 30.4940 -83.0300 159° South 475 547 39,000  Level FlightAware ADS-B
Sun 08:32:28 PM 30.4240 -82.9990 159° South 475 547 39,000  Level FlightAware ADS-B
Sun 08:33:08 PM 30.3540 -82.9680 159° South 475 547 39,000  Level FlightAware ADS-B
Sun 08:33:53 PM 30.6160 -83.0850 339° North 473 544 39,000  Level FlightAware ADS-B
Sun 08:34:33 PM 30.5460 -83.0540 159° South 473 544 39,000  Level FlightAware ADS-B
Sun 08:35:13 PM 30.4770 -83.0230 159° South 473 544 39,000  Level FlightAware ADS-B
Sun 08:35:53 PM 30.4070 -82.9920 159° South 473 544 39,000  Level FlightAware ADS-B
Sun 08:36:33 PM 30.3380 -82.9610 159° South 473 544 39,000  Level FlightAware ADS-B
Sun 08:37:23 PM 30.2510 -82.9220 159° South 473 544 39,000  Level FlightAware ADS-B
Sun 08:38:03 PM 30.1820 -82.8910 159° South 473 544 39,000  Level FlightAware ADS-B
Sun 08:38:43 PM 30.1120 -82.8610 160° South 473 544 39,000  Level FlightAware ADS-B
Sun 08:39:23 PM 30.0430 -82.8300 159° South 473 544 39,000  Level FlightAware ADS-B
Sun 08:40:08 PM 29.3620 -82.7180 172° South 454 522 39,000  Level FlightAware ADS-B
Sun 08:40:53 PM 29.2720 -82.7010 171° South 454 522 39,000  Level FlightAware ADS-B
Sun 08:41:33 PM 29.1860 -82.6840 170° South 455 524 39,000  Level FlightAware ADS-B
Sun 08:42:18 PM 29.1000 -82.6680 171° South 455 524 39,000  Level FlightAware ADS-B
Sun 08:42:58 PM 29.0170 -82.6530 171° South 454 522 39,000  Level FlightAware ADS-B
Sun 08:44:08 PM 28.8730 -82.6250 170° South 444 511 39,000  Level FlightAware ADS-B
Sun 08:44:43 PM 28.7990 -82.6110 171° South 444 511 39,000  Level FlightAware ADS-B
Sun 08:45:33 PM 28.6900 -82.5910 171° South 451 519 39,000  Level FlightAware ADS-B
Sun 08:46:13 PM 28.6080 -82.5750 170° South 449 517 39,000  Level FlightAware ADS-B
Sun 08:46:58 PM 28.5130 -82.5580 171° South 448 516 39,000  Level FlightAware ADS-B
Sun 08:47:38 PM 28.4310 -82.5420 170° South 447 514 39,000  Level FlightAware ADS-B
Sun 08:48:18 PM 28.3510 -82.5270 171° South 447 514 39,000  Level FlightAware ADS-B
Sun 08:49:03 PM 28.2590 -82.5100 171° South 450 518 39,000  Level FlightAware ADS-B
Sun 08:49:43 PM 28.1770 -82.5000 174° South 439 505 39,000  Level FlightAware ADS-B
Sun 08:50:28 PM 28.0850 -82.5050 183° South 432 497 39,000  Level FlightAware ADS-B
Sun 08:51:08 PM 28.0060 -82.5090 183° South 431 496 39,000  Level FlightAware ADS-B
Sun 08:51:48 PM 27.9230 -82.4990 174° South 454 522 39,000  Level FlightAware ADS-B
Sun 08:52:33 PM 27.8370 -82.4670 162° South 459 528 39,000  Level FlightAware ADS-B
Sun 08:53:13 PM 27.7530 -82.4360 162° South 458 527 39,000 -141 Level FlightAware ADS-B
Sun 08:53:58 PM 27.6640 -82.3980 159° South 470 541 38,800 -635 Descending FlightAware ADS-B
Sun 08:54:38 PM 27.5870 -82.3410 147° Southeast 483 556 38,100 -975 Descending FlightAware ADS-B
Sun 08:55:18 PM 27.5170 -82.2860 145° Southeast 489 563 37,500 -918 Descending FlightAware ADS-B
Sun 08:56:03 PM 27.4320 -82.2200 145° Southeast 490 564 36,800 -918 Descending FlightAware ADS-B
Sun 08:56:43 PM 27.3600 -82.1630 145° Southeast 488 562 36,200 -975 Descending FlightAware ADS-B
Sun 08:57:23 PM 27.2820 -82.1030 146° Southeast 490 564 35,500 -988 Descending FlightAware ADS-B
Sun 08:58:08 PM 27.1960 -82.0360 145° Southeast 495 570 34,800 -1,000 Descending FlightAware ADS-B
Sun 08:58:53 PM 27.1130 -81.9710 145° Southeast 498 573 34,000 -2,047 Descending FlightAware ADS-B
Sun 08:59:33 PM 27.0360 -81.9120 146° Southeast 497 572 31,900 -3,300 Descending FlightAware ADS-B
Sun 09:00:13 PM 26.9620 -81.8540 145° Southeast 497 572 29,600 -3,176 Descending FlightAware ADS-B
Sun 09:00:58 PM 26.8770 -81.7880 145° Southeast 488 562 27,400 -2,824 Descending FlightAware ADS-B
Sun 09:01:38 PM 26.8040 -81.7270 143° Southeast 474 545 25,600 -1,440 Descending FlightAware ADS-B
Sun 09:02:13 PM 26.7540 -81.6770 138° Southeast 474 545 25,600 -1,867 Level FlightAware ADS-B
Sun 09:03:08 PM 26.6720 -81.5830 134° Southeast 437 503 22,800 -2,857 Descending FlightAware ADS-B
Sun 09:03:58 PM 26.5990 -81.5040 136° Southeast 427 491 20,600 -2,526 Descending FlightAware ADS-B
Sun 09:04:43 PM 26.5360 -81.4360 136° Southeast 408 470 18,800 -2,400 Descending FlightAware ADS-B
Sun 09:05:13 PM 26.4940 -81.3890 135° Southeast 403 464 17,600 -2,550 Descending FlightAware ADS-B
Sun 09:06:03 PM 26.4290 -81.3190 136° Southeast 386 444 15,400 -2,526 Descending FlightAware ADS-B
Sun 09:06:48 PM 26.3720 -81.2570 136° Southeast 381 438 13,600 -2,340 Descending FlightAware ADS-B
Sun 09:07:43 PM 26.3060 -81.1850 136° Southeast 363 418 11,500 -1,958 Descending FlightAware ADS-B
Sun 09:08:23 PM 26.2600 -81.1360 136° Southeast 342 394 10,500 -1,050 Descending FlightAware ADS-B
Sun 09:09:03 PM 26.2140 -81.0860 136° Southeast 296 341 10,100 -600 Descending FlightAware ADS-B
Sun 09:09:33 PM 26.1870 -81.0570 136° Southeast 275 316 9,800 -1,000 Descending FlightAware ADS-B
Sun 09:10:03 PM 26.1570 -81.0250 136° Southeast 272 313 9,100 -1,300 Descending FlightAware ADS-B
Sun 09:10:33 PM 26.1320 -80.9970 135° Southeast 266 306 8,500 -1,200 Descending FlightAware ADS-B
Sun 09:10:43 PM 26.1250 -80.9840 121° Southeast 264 304 8,300 -1,440 Descending FlightAware ADS-B
Sun 09:10:58 PM 26.1200 -80.9630 105° East 264 304 7,900 -1,527 Descending FlightAware ADS-B
Sun 09:11:38 PM 26.1160 -80.9120 95° East 270 311 6,900 -1,636 Descending FlightAware ADS-B
Sun 09:11:53 PM 26.1140 -80.8890 96° East 276 318 6,400 -1,200 Descending FlightAware ADS-B
Sun 09:12:23 PM 26.1100 -80.8500 97° East 269 310 6,000 -655 Descending FlightAware ADS-B
Sun 09:12:48 PM 26.1060 -80.8130 97° East 267 307 5,800 -267 Descending FlightAware ADS-B
Sun 09:13:08 PM 26.1030 -80.7830 96° East 263 303 5,800  Level FlightAware ADS-B
Sun 09:13:48 PM 26.0990 -80.7320 95° East 264 304 5,800  Level FlightAware ADS-B
Sun 09:14:08 PM 26.0960 -80.7020 96° East 266 306 5,800  Level FlightAware ADS-B
Sun 09:14:43 PM 26.0910 -80.6570 97° East 250 288 5,800 100 Level FlightAware ADS-B
Sun 09:15:08 PM 26.0880 -80.6260 96° East 221 254 5,900  Climbing FlightAware ADS-B
Sun 09:15:38 PM 26.0860 -80.5970 94° East 198 228 5,800 -109 Descending FlightAware ADS-B
Sun 09:16:03 PM 26.0830 -80.5700 97° East 190 219 5,800 86 Level FlightAware ADS-B
Sun 09:16:48 PM 26.0780 -80.5280 98° East 189 217 5,900 -171 Climbing FlightAware ADS-B
Sun 09:17:13 PM 26.0780 -80.5040 90° East 190 219 5,600 -764 Descending FlightAware ADS-B
Sun 09:17:43 PM 26.0790 -80.4740 88° East 199 229 5,200 -1,000 Descending FlightAware ADS-B
Sun 09:18:13 PM 26.0780 -80.4430 92° East 199 229 4,600 -1,091 Descending FlightAware ADS-B
Sun 09:18:38 PM 26.0780 -80.4180 90° East 198 228 4,200 -1,091 Descending FlightAware ADS-B
Sun 09:19:08 PM 26.0780 -80.3870 90° East 192 221 3,600 -1,091 Descending FlightAware ADS-B
Sun 09:19:33 PM 26.0780 -80.3640 90° East 186 214 3,200 -873 Descending FlightAware ADS-B
Sun 09:20:03 PM 26.0780 -80.3350 90° East 184 212 2,800 -900 Descending FlightAware ADS-B
Sun 09:20:33 PM 26.0780 -80.3070 90° East 178 205 2,300 -1,000 Descending FlightAware ADS-B
Sun 09:21:03 PM 26.0780 -80.2820 90° East 161 185 1,800 -933 Descending FlightAware ADS-B
Sun 09:21:18 PM 26.0780 -80.2710 90° East 153 176 1,600 -720 Descending FlightAware ADS-B
Sun 09:21:53 PM 26.0770 -80.2440 92° East 129 148 1,200 -675 Descending FlightAware ADS-B
Sun 09:22:38 PM 26.0770 -80.2150 90° East 127 146 700 -640 Descending FlightAware ADS-B
Sun 09:23:08 PM 26.0770 -80.1960 90° East 130 150 400 -450 Descending FlightAware ADS-B
Sun 09:23:58 PM 26.0770 -80.1660 90° East 129 148 100 -360 Descending FlightAware ADS-B

Login

Don't have an account? Register now (free) for customized features, flight alerts, and more!